Главная страница
METAR-TAF:

METAR-TAF

Аэропорты :

Якутск, Россия

широта: 62-01N, долгота: 129-43E, высота над уровнем моря: 103 м

Текущие метеонаблюдения

Эта сводка был подготовлена 44 минут назад, в 21:00 UTC
Ветер 10 Узел от северно-северо-западный
Температура -8°C
Влажность 62%
Давление 1015 hPa
Видимость 10 км и более
Нет облачности ниже 1500 м, и нет кучево-дождевой облачности

METAR: UEEE 252100Z 34005MPS CAVOK M08/M14 Q1015 R23L/09//60 NOSIG RMK QFE752

Время: 06:44 (21:44 UTC)

Прогноз

Эта сводка был подготовлена 1 час и 44 минут назад, в 20:00 UTC
Прогноз действительный с 25-го 21 UTC до 27-го 03 UTC
Ветер 10 Узел от северо-западный с порывами до 19 Узел
Видимость 10 км и более
Нет облачности ниже 1500 м, и нет кучево-дождевой облачности

TAF: UEEE 252000Z 2521/2703 32005G10MPS CAVOK

Метеонаблюдения и прогнозы для более 4000 аэропортов (сводки METAR и TAF).

Имеющиеся станции представлены на карте желтыми и красными точками.

Чтобы увидеть название станции, наведите на нее мышь.

Затем щелкните, чтобы увидеть метеонаблюдения и метеопрогнозы.

Управление картой: чтобы увеличить масштаб, щелкните зеленые кнопки с черным крестиком; чтобы уменьшить масштаб, щелкните зеленую кнопку с тире; для просмотра соседних карт щелкайте зеленые стрелки.


METAR-TAF: